Time;durP1;ratioP1;P1;durP2;ratioP2;P2;SDS_P1;SDS_P2;PMS_P1;PMS_P2;Temp;Humidity;BMP_temperature;BMP_pressure;BME280_temperature;BME280_humidity;BME280_pressure;Samples;Min_cycle;Max_cycle;Signal;HPM_P1;HPM_P2
2023/03/16 00:00:10;;;;;;;4.80;1.43;;;;;;;;;;5018208;28;20223;-76
2023/03/16 00:02:46;;;;;;;2.33;1.50;;;;;;;;;;5037776;28;20242;-75
2023/03/16 00:05:12;;;;;;;4.63;1.43;;;;;;;;;;5053097;28;20563;-75
2023/03/16 00:07:40;;;;;;;1.37;1.17;;;;;;;;;;5035765;28;20571;-75
2023/03/16 00:10:11;;;;;;;2.90;1.40;;;;;;;;;;5019065;28;20280;-77
2023/03/16 00:12:39;;;;;;;2.50;1.47;;;;;;;;;;5034284;28;20246;-77
2023/03/16 00:15:09;;;;;;;3.10;1.43;;;;;;;;;;5036008;28;20215;-77
2023/03/16 00:17:37;;;;;;;5.37;1.50;;;;;;;;;;5035477;28;20219;-76
2023/03/16 00:20:05;;;;;;;3.97;1.73;;;;;;;;;;5037091;28;20219;-77
2023/03/16 00:22:33;;;;;;;2.77;1.37;;;;;;;;;;5042859;28;20550;-77
2023/03/16 00:25:02;;;;;;;2.30;1.47;;;;;;;;;;5027503;28;20301;-77
2023/03/16 00:27:32;;;;;;;2.97;1.50;;;;;;;;;;5033479;28;20227;-76
2023/03/16 00:30:02;;;;;;;4.30;1.70;;;;;;;;;;5037138;28;20222;-77
2023/03/16 00:32:30;;;;;;;3.63;1.67;;;;;;;;;;5015618;28;20347;-77
2023/03/16 00:35:01;;;;;;;3.27;1.60;;;;;;;;;;5019945;28;20344;-76
2023/03/16 00:37:31;;;;;;;2.60;1.53;;;;;;;;;;5032993;28;20223;-77
2023/03/16 00:40:00;;;;;;;3.77;1.67;;;;;;;;;;5034833;28;20220;-77
2023/03/16 00:42:33;;;;;;;4.00;1.70;;;;;;;;;;5035158;28;20622;-76
2023/03/16 00:45:01;;;;;;;2.23;1.53;;;;;;;;;;5054001;28;20225;-76
2023/03/16 00:47:31;;;;;;;3.07;1.50;;;;;;;;;;5034806;28;20763;-76
2023/03/16 00:49:59;;;;;;;2.00;1.27;;;;;;;;;;5034893;28;20254;-77
2023/03/16 00:52:26;;;;;;;3.60;1.77;;;;;;;;;;5018167;28;20845;-76
2023/03/16 00:54:54;;;;;;;3.50;1.30;;;;;;;;;;5018310;28;20222;-77
2023/03/16 00:57:21;;;;;;;4.03;1.63;;;;;;;;;;5048791;28;20219;-74
2023/03/16 00:59:51;;;;;;;4.23;2.03;;;;;;;;;;5020471;28;20230;-76
2023/03/16 01:02:22;;;;;;;3.83;1.77;;;;;;;;;;5004169;28;20216;-77
2023/03/16 01:04:48;;;;;;;4.87;1.63;;;;;;;;;;5022412;28;20294;-77
2023/03/16 01:07:18;;;;;;;5.23;1.70;;;;;;;;;;5004532;28;20246;-75
2023/03/16 01:09:44;;;;;;;4.03;1.73;;;;;;;;;;5032814;28;20203;-76
2023/03/16 01:12:16;;;;;;;5.10;1.87;;;;;;;;;;5023145;28;20705;-76
2023/03/16 01:14:47;;;;;;;2.87;1.60;;;;;;;;;;5037316;28;20219;-77
2023/03/16 01:17:13;;;;;;;4.60;1.57;;;;;;;;;;5038952;28;20777;-77
2023/03/16 01:19:41;;;;;;;4.40;1.50;;;;;;;;;;5036865;28;20214;-77
2023/03/16 01:22:08;;;;;;;3.60;1.70;;;;;;;;;;5006772;28;20230;-77
2023/03/16 01:24:37;;;;;;;3.03;1.67;;;;;;;;;;5038974;28;20664;-76
2023/03/16 01:27:05;;;;;;;2.23;1.67;;;;;;;;;;5022570;28;20211;-76
2023/03/16 01:29:34;;;;;;;3.93;1.87;;;;;;;;;;5022991;28;20206;-76
2023/03/16 01:32:05;;;;;;;6.03;1.90;;;;;;;;;;5039264;28;20215;-76
2023/03/16 01:34:33;;;;;;;4.80;1.83;;;;;;;;;;5034968;28;20226;-76
2023/03/16 01:37:02;;;;;;;3.53;1.53;;;;;;;;;;5035808;28;20226;-77
2023/03/16 01:39:51;;;;;;;2.57;1.43;;;;;;;;;;5046119;28;20269;-77
2023/03/16 01:42:19;;;;;;;2.83;1.60;;;;;;;;;;5034964;28;20306;-77
2023/03/16 01:45:00;;;;;;;2.00;1.63;;;;;;;;;;5020439;28;20204;-76
2023/03/16 01:47:37;;;;;;;5.83;1.97;;;;;;;;;;5037155;28;20227;-76
2023/03/16 01:50:04;;;;;;;3.23;1.63;;;;;;;;;;5032258;28;20218;-77
2023/03/16 01:52:33;;;;;;;8.73;1.93;;;;;;;;;;5022128;28;20532;-77
2023/03/16 01:55:06;;;;;;;5.20;1.50;;;;;;;;;;5019708;28;20226;-76
2023/03/16 01:57:37;;;;;;;2.03;1.70;;;;;;;;;;5019754;28;20223;-76
2023/03/16 02:00:18;;;;;;;5.83;1.60;;;;;;;;;;5035898;28;20221;-76
2023/03/16 02:02:56;;;;;;;5.13;1.80;;;;;;;;;;5030580;28;20234;-76
2023/03/16 02:05:37;;;;;;;3.27;1.60;;;;;;;;;;5033340;28;20316;-75
2023/03/16 02:08:03;;;;;;;4.07;1.40;;;;;;;;;;5021266;28;20578;-76
2023/03/16 02:10:32;;;;;;;3.63;1.60;;;;;;;;;;5010846;28;20302;-77
2023/03/16 02:13:05;;;;;;;1.93;1.50;;;;;;;;;;5021197;28;20343;-77
2023/03/16 02:15:36;;;;;;;3.83;1.50;;;;;;;;;;5017680;28;20219;-76
2023/03/16 02:18:04;;;;;;;4.60;1.43;;;;;;;;;;5036706;28;20306;-76
2023/03/16 02:21:02;;;;;;;3.13;1.80;;;;;;;;;;5015867;28;20227;-77
2023/03/16 02:23:27;;;;;;;2.80;1.70;;;;;;;;;;5019916;28;20219;-77
2023/03/16 02:26:33;;;;;;;5.83;1.57;;;;;;;;;;5003899;28;20214;-76
2023/03/16 02:29:17;;;;;;;1.57;1.17;;;;;;;;;;5033455;28;20223;-77
2023/03/16 02:31:47;;;;;;;3.57;1.60;;;;;;;;;;5056421;28;20277;-75
2023/03/16 02:34:16;;;;;;;3.07;1.43;;;;;;;;;;5022094;28;20243;-76
2023/03/16 02:36:46;;;;;;;4.73;1.63;;;;;;;;;;5038827;28;20221;-76
2023/03/16 02:39:13;;;;;;;2.27;1.50;;;;;;;;;;5004495;28;20302;-77
2023/03/16 02:41:47;;;;;;;6.77;1.80;;;;;;;;;;5036909;28;20907;-77
2023/03/16 02:44:15;;;;;;;2.30;1.70;;;;;;;;;;5035091;28;20222;-77
2023/03/16 02:46:42;;;;;;;3.93;1.53;;;;;;;;;;5036593;28;20212;-77
2023/03/16 02:49:16;;;;;;;4.50;1.60;;;;;;;;;;5005262;28;20229;-77
2023/03/16 02:51:43;;;;;;;2.90;1.73;;;;;;;;;;5019120;28;20276;-76
2023/03/16 02:54:09;;;;;;;5.03;1.77;;;;;;;;;;5039172;28;20584;-76
2023/03/16 02:56:40;;;;;;;3.53;1.80;;;;;;;;;;5022128;28;20286;-76
2023/03/16 02:59:10;;;;;;;3.20;1.90;;;;;;;;;;5021651;28;20611;-76
2023/03/16 03:01:36;;;;;;;4.13;2.20;;;;;;;;;;5020017;28;20321;-77
2023/03/16 03:04:04;;;;;;;4.20;1.80;;;;;;;;;;5020632;28;20213;-77
2023/03/16 03:06:31;;;;;;;3.60;1.80;;;;;;;;;;5041671;28;20692;-77
2023/03/16 03:09:01;;;;;;;4.33;2.10;;;;;;;;;;5019224;28;20207;-76
2023/03/16 03:11:30;;;;;;;4.10;1.83;;;;;;;;;;5026531;28;20211;-77
2023/03/16 03:13:58;;;;;;;3.30;2.00;;;;;;;;;;5016580;28;20708;-76
2023/03/16 03:16:28;;;;;;;6.50;1.97;;;;;;;;;;5034109;28;20215;-76
2023/03/16 03:18:55;;;;;;;5.10;1.97;;;;;;;;;;5030525;28;20638;-77
2023/03/16 03:21:23;;;;;;;3.77;2.37;;;;;;;;;;5032650;28;20227;-77
2023/03/16 03:23:54;;;;;;;3.70;2.03;;;;;;;;;;5020481;28;20211;-76
2023/03/16 03:26:20;;;;;;;5.23;2.43;;;;;;;;;;5003145;28;20229;-77
2023/03/16 03:28:48;;;;;;;5.40;2.20;;;;;;;;;;5036250;28;20249;-77
2023/03/16 03:31:22;;;;;;;3.53;2.33;;;;;;;;;;5019608;28;20713;-76
2023/03/16 03:33:52;;;;;;;3.47;2.33;;;;;;;;;;5016140;28;20724;-77
2023/03/16 03:36:23;;;;;;;2.03;1.90;;;;;;;;;;5051171;28;20449;-76
2023/03/16 03:38:53;;;;;;;6.20;2.77;;;;;;;;;;5021549;28;20222;-76
2023/03/16 03:41:22;;;;;;;3.60;2.10;;;;;;;;;;5033652;28;20612;-76
2023/03/16 03:43:48;;;;;;;2.53;2.20;;;;;;;;;;5037313;28;20262;-76
2023/03/16 03:46:16;;;;;;;6.13;2.50;;;;;;;;;;5019669;28;20215;-77
2023/03/16 03:48:44;;;;;;;3.13;2.17;;;;;;;;;;5034232;28;20224;-76
2023/03/16 03:51:10;;;;;;;3.47;2.70;;;;;;;;;;5013408;28;20310;-76
2023/03/16 03:53:44;;;;;;;6.63;2.50;;;;;;;;;;5050649;28;20274;-77
2023/03/16 03:56:20;;;;;;;5.77;2.43;;;;;;;;;;5037261;28;20211;-77
2023/03/16 03:58:46;;;;;;;2.70;2.50;;;;;;;;;;5017854;28;20267;-77
2023/03/16 04:01:18;;;;;;;7.40;2.97;;;;;;;;;;5001887;28;20281;-76
2023/03/16 04:03:44;;;;;;;4.63;2.70;;;;;;;;;;5034275;28;20220;-77
2023/03/16 04:06:12;;;;;;;4.07;2.60;;;;;;;;;;5013947;28;20230;-78
2023/03/16 04:08:40;;;;;;;3.13;2.63;;;;;;;;;;5050738;28;20226;-78
2023/03/16 04:11:11;;;;;;;5.47;2.63;;;;;;;;;;5035110;28;20289;-76
2023/03/16 04:13:38;;;;;;;5.87;2.93;;;;;;;;;;5003324;28;20262;-77
2023/03/16 04:16:06;;;;;;;4.47;2.63;;;;;;;;;;5020546;28;20211;-77
2023/03/16 04:18:39;;;;;;;4.47;3.33;;;;;;;;;;5032785;28;20223;-77
2023/03/16 04:21:07;;;;;;;6.80;2.83;;;;;;;;;;5018110;28;21231;-77
2023/03/16 04:23:35;;;;;;;4.87;2.60;;;;;;;;;;5030736;28;20219;-76
2023/03/16 04:26:01;;;;;;;4.90;2.87;;;;;;;;;;5015668;28;20223;-77
2023/03/16 04:28:27;;;;;;;2.97;2.30;;;;;;;;;;5019405;28;20222;-76
2023/03/16 04:30:55;;;;;;;3.20;2.70;;;;;;;;;;5035141;28;20219;-76
2023/03/16 04:33:31;;;;;;;3.87;2.73;;;;;;;;;;5018006;23;20269;-87
2023/03/16 04:35:59;;;;;;;7.03;2.90;;;;;;;;;;4976100;28;20257;-86
2023/03/16 04:38:28;;;;;;;7.23;3.40;;;;;;;;;;4986139;28;20295;-86
2023/03/16 04:40:59;;;;;;;3.23;2.83;;;;;;;;;;4973933;28;20214;-85
2023/03/16 04:43:33;;;;;;;8.80;3.17;;;;;;;;;;4951275;28;20249;-84
2023/03/16 04:46:07;;;;;;;5.27;2.43;;;;;;;;;;4964214;28;20209;-85
2023/03/16 04:48:33;;;;;;;5.07;3.07;;;;;;;;;;4963692;28;20222;-86
2023/03/16 04:51:02;;;;;;;4.30;2.70;;;;;;;;;;4966173;28;20277;-85
2023/03/16 04:53:30;;;;;;;5.03;2.77;;;;;;;;;;4975772;28;20291;-86
2023/03/16 04:56:03;;;;;;;3.17;2.60;;;;;;;;;;4942027;28;20651;-87
2023/03/16 04:58:32;;;;;;;5.20;2.67;;;;;;;;;;4979037;28;20222;-88
2023/03/16 05:01:01;;;;;;;5.37;2.70;;;;;;;;;;4959404;28;20943;-85
2023/03/16 05:03:28;;;;;;;4.87;2.37;;;;;;;;;;4944309;28;20233;-84
2023/03/16 05:05:56;;;;;;;5.67;2.70;;;;;;;;;;4961562;28;20225;-83
2023/03/16 05:08:24;;;;;;;4.67;2.63;;;;;;;;;;4946098;28;20224;-87
2023/03/16 05:10:59;;;;;;;6.00;2.83;;;;;;;;;;4962785;28;20685;-85
2023/03/16 05:13:29;;;;;;;5.10;2.70;;;;;;;;;;4965880;28;20698;-84
2023/03/16 05:15:58;;;;;;;4.43;2.60;;;;;;;;;;4954710;28;20218;-87
2023/03/16 05:18:32;;;;;;;10.23;2.83;;;;;;;;;;4942017;28;20229;-88
2023/03/16 05:20:57;;;;;;;4.50;2.97;;;;;;;;;;4945497;28;20219;-85
2023/03/16 05:23:30;;;;;;;3.80;2.83;;;;;;;;;;4946056;28;20233;-87
2023/03/16 05:26:00;;;;;;;3.87;2.50;;;;;;;;;;4975465;28;20220;-85
2023/03/16 05:28:28;;;;;;;3.90;2.70;;;;;;;;;;4945290;28;20222;-85
2023/03/16 05:31:02;;;;;;;4.10;2.37;;;;;;;;;;4962287;28;20214;-86
2023/03/16 05:33:37;;;;;;;3.67;2.43;;;;;;;;;;4954381;28;20218;-85
2023/03/16 05:36:06;;;;;;;2.40;1.90;;;;;;;;;;4962527;28;20275;-85
2023/03/16 05:38:35;;;;;;;4.60;2.23;;;;;;;;;;4963209;28;20225;-86
2023/03/16 05:41:04;;;;;;;4.07;2.47;;;;;;;;;;4952890;28;20333;-85
2023/03/16 05:43:46;;;;;;;3.07;2.40;;;;;;;;;;4963537;28;20225;-84
2023/03/16 05:46:13;;;;;;;2.80;2.20;;;;;;;;;;4954244;28;20221;-84
2023/03/16 05:48:41;;;;;;;7.97;2.27;;;;;;;;;;4975426;28;20222;-86
2023/03/16 05:51:08;;;;;;;2.37;2.03;;;;;;;;;;4943659;28;20218;-86
2023/03/16 05:53:35;;;;;;;3.70;2.00;;;;;;;;;;4942422;28;20225;-85
2023/03/16 05:56:19;;;;;;;4.50;2.70;;;;;;;;;;4974808;28;20210;-83
2023/03/16 05:58:45;;;;;;;4.67;2.33;;;;;;;;;;4962569;28;20222;-85
2023/03/16 06:01:14;;;;;;;5.10;2.23;;;;;;;;;;4957900;28;20240;-84
2023/03/16 06:03:41;;;;;;;4.70;2.20;;;;;;;;;;4960514;28;20249;-83
2023/03/16 06:06:12;;;;;;;5.20;2.63;;;;;;;;;;4932499;28;20219;-85
2023/03/16 06:08:50;;;;;;;8.00;2.83;;;;;;;;;;4959375;28;20244;-85
2023/03/16 06:11:20;;;;;;;4.30;2.47;;;;;;;;;;4948374;28;20256;-84
2023/03/16 06:13:46;;;;;;;6.13;2.90;;;;;;;;;;4955306;28;20214;-84
2023/03/16 06:16:13;;;;;;;4.13;2.70;;;;;;;;;;4973796;28;20230;-84
2023/03/16 06:18:42;;;;;;;4.77;2.10;;;;;;;;;;4983470;28;20237;-83
2023/03/16 06:21:08;;;;;;;2.80;2.07;;;;;;;;;;4957450;28;20225;-87
2023/03/16 06:23:34;;;;;;;5.33;2.40;;;;;;;;;;4962287;28;20214;-84
2023/03/16 06:26:04;;;;;;;4.30;2.27;;;;;;;;;;4974743;28;20241;-87
2023/03/16 06:28:31;;;;;;;2.93;2.30;;;;;;;;;;4962089;28;20221;-86
2023/03/16 06:30:57;;;;;;;3.60;2.10;;;;;;;;;;4947285;28;20240;-86
2023/03/16 06:33:27;;;;;;;4.63;2.57;;;;;;;;;;4957021;28;20217;-87
2023/03/16 06:35:55;;;;;;;4.30;2.40;;;;;;;;;;4959805;28;20218;-87
2023/03/16 06:38:32;;;;;;;4.40;2.10;;;;;;;;;;4955404;28;20223;-86
2023/03/16 06:41:13;;;;;;;5.10;2.47;;;;;;;;;;4948167;28;20480;-84
2023/03/16 06:43:38;;;;;;;3.10;2.00;;;;;;;;;;4926946;28;20321;-84
2023/03/16 06:46:10;;;;;;;5.37;3.47;;;;;;;;;;4955838;28;20267;-85
2023/03/16 06:48:38;;;;;;;2.77;2.17;;;;;;;;;;4955048;28;20238;-85
2023/03/16 06:51:06;;;;;;;3.77;2.20;;;;;;;;;;4940943;28;20703;-87
2023/03/16 06:53:32;;;;;;;3.50;2.10;;;;;;;;;;4961282;28;20604;-86
2023/03/16 06:56:02;;;;;;;3.93;1.43;;;;;;;;;;4938300;28;20217;-84
2023/03/16 06:58:33;;;;;;;2.37;1.77;;;;;;;;;;4966447;28;20222;-86
2023/03/16 07:01:02;;;;;;;2.83;1.80;;;;;;;;;;4964241;28;20226;-84
2023/03/16 07:03:28;;;;;;;3.37;1.90;;;;;;;;;;4975836;28;20249;-86
2023/03/16 07:05:58;;;;;;;3.07;1.93;;;;;;;;;;4925967;28;20218;-86
2023/03/16 07:08:26;;;;;;;3.40;1.50;;;;;;;;;;4961272;28;20306;-86
2023/03/16 07:10:54;;;;;;;2.13;1.60;;;;;;;;;;4967873;28;20217;-85
2023/03/16 07:13:22;;;;;;;3.47;1.90;;;;;;;;;;4959431;28;20230;-88
2023/03/16 07:15:51;;;;;;;3.00;1.50;;;;;;;;;;4921201;28;20221;-88
2023/03/16 07:18:18;;;;;;;2.40;1.67;;;;;;;;;;4945969;28;20245;-88
2023/03/16 07:20:44;;;;;;;4.07;1.70;;;;;;;;;;4958241;28;20694;-87
2023/03/16 07:23:09;;;;;;;3.83;1.70;;;;;;;;;;4941746;28;20230;-86
2023/03/16 07:25:36;;;;;;;4.00;1.40;;;;;;;;;;4960551;28;20222;-86
2023/03/16 07:28:11;;;;;;;3.40;1.73;;;;;;;;;;4952874;28;20251;-85
2023/03/16 07:30:40;;;;;;;1.77;1.47;;;;;;;;;;4943586;28;20619;-86
2023/03/16 07:33:11;;;;;;;4.23;1.60;;;;;;;;;;4939335;28;20228;-85
2023/03/16 07:35:38;;;;;;;4.43;1.70;;;;;;;;;;4957622;28;20309;-85
2023/03/16 07:38:03;;;;;;;2.53;1.87;;;;;;;;;;4962933;28;20218;-86
2023/03/16 07:40:33;;;;;;;1.83;1.47;;;;;;;;;;4957425;28;20308;-87
2023/03/16 07:43:06;;;;;;;3.73;1.30;;;;;;;;;;4958646;28;20267;-86
2023/03/16 07:45:40;;;;;;;4.50;1.73;;;;;;;;;;4947175;28;20691;-84
2023/03/16 07:48:08;;;;;;;3.70;1.50;;;;;;;;;;4970499;28;20231;-86
2023/03/16 07:51:00;;;;;;;1.73;1.60;;;;;;;;;;4963626;28;20233;-87
2023/03/16 07:53:34;;;;;;;2.67;1.70;;;;;;;;;;4952666;28;20308;-88
2023/03/16 07:56:15;;;;;;;2.00;1.40;;;;;;;;;;4963885;28;20227;-87
2023/03/16 07:58:43;;;;;;;2.73;1.60;;;;;;;;;;4952392;28;20304;-86
2023/03/16 08:01:10;;;;;;;2.97;1.50;;;;;;;;;;4960547;28;20224;-86
2023/03/16 08:03:36;;;;;;;5.30;1.70;;;;;;;;;;4955127;28;20249;-88
2023/03/16 08:06:05;;;;;;;1.83;1.50;;;;;;;;;;4953141;28;20236;-87
2023/03/16 08:08:31;;;;;;;2.47;1.50;;;;;;;;;;4970191;28;20249;-86
2023/03/16 08:10:57;;;;;;;2.77;1.30;;;;;;;;;;4964328;28;20213;-86
2023/03/16 08:13:30;;;;;;;2.90;1.60;;;;;;;;;;4953452;28;20248;-87
2023/03/16 08:16:01;;;;;;;1.87;1.33;;;;;;;;;;4957259;28;20690;-86
2023/03/16 08:18:33;;;;;;;1.83;1.40;;;;;;;;;;4972964;28;20220;-87
2023/03/16 08:21:01;;;;;;;1.37;1.27;;;;;;;;;;4942855;28;20229;-84
2023/03/16 08:23:28;;;;;;;2.17;1.33;;;;;;;;;;4958150;28;20659;-85
2023/03/16 08:25:54;;;;;;;2.53;1.17;;;;;;;;;;4962397;28;20228;-85
2023/03/16 08:28:21;;;;;;;3.80;1.50;;;;;;;;;;4959651;28;20592;-87
2023/03/16 08:30:51;;;;;;;2.23;1.10;;;;;;;;;;4949932;28;20213;-84
2023/03/16 08:33:37;;;;;;;3.90;1.50;;;;;;;;;;4969398;28;20221;-86
2023/03/16 08:36:07;;;;;;;2.97;1.10;;;;;;;;;;4959344;28;20213;-86
2023/03/16 08:38:34;;;;;;;1.37;1.20;;;;;;;;;;4962691;28;20980;-85
2023/03/16 08:41:04;;;;;;;1.57;1.40;;;;;;;;;;4972165;28;20545;-86
2023/03/16 08:43:31;;;;;;;2.07;1.23;;;;;;;;;;4957748;28;20595;-88
2023/03/16 08:45:57;;;;;;;1.53;1.07;;;;;;;;;;4933924;28;20217;-86
2023/03/16 08:48:35;;;;;;;3.50;1.33;;;;;;;;;;4958246;28;20237;-87
2023/03/16 08:51:04;;;;;;;3.10;1.40;;;;;;;;;;4944036;28;20248;-85
2023/03/16 08:53:30;;;;;;;2.50;1.33;;;;;;;;;;4928919;28;20703;-87
2023/03/16 08:56:24;;;;;;;1.70;1.23;;;;;;;;;;4947758;28;20221;-88
2023/03/16 08:58:52;;;;;;;3.63;1.30;;;;;;;;;;4969491;28;20237;-87
2023/03/16 09:01:21;;;;;;;3.83;1.30;;;;;;;;;;4958007;28;20257;-86
2023/03/16 09:03:46;;;;;;;2.20;0.97;;;;;;;;;;4957712;28;20709;-85
2023/03/16 09:06:14;;;;;;;2.37;1.17;;;;;;;;;;4939329;28;20228;-87
2023/03/16 09:08:39;;;;;;;2.90;1.37;;;;;;;;;;4962327;28;20300;-87
2023/03/16 09:11:09;;;;;;;2.77;1.03;;;;;;;;;;4965155;28;20256;-85
2023/03/16 09:13:38;;;;;;;1.90;1.20;;;;;;;;;;4948926;28;20222;-85
2023/03/16 09:16:07;;;;;;;2.90;1.07;;;;;;;;;;4958884;28;20222;-86
2023/03/16 09:18:35;;;;;;;1.80;0.90;;;;;;;;;;4976036;28;20237;-87
2023/03/16 09:21:05;;;;;;;1.27;1.00;;;;;;;;;;4971723;28;20315;-86
2023/03/16 09:23:33;;;;;;;2.83;0.90;;;;;;;;;;4956542;28;20237;-85
2023/03/16 09:26:00;;;;;;;1.23;1.00;;;;;;;;;;4947133;28;20296;-86
2023/03/16 09:28:26;;;;;;;1.17;1.00;;;;;;;;;;4938519;28;20249;-86
2023/03/16 09:30:53;;;;;;;2.30;1.13;;;;;;;;;;4937580;28;20218;-84
2023/03/16 09:33:20;;;;;;;5.00;1.07;;;;;;;;;;4956871;28;20250;-86
2023/03/16 09:35:46;;;;;;;3.53;1.20;;;;;;;;;;4959308;28;20256;-87
2023/03/16 09:38:14;;;;;;;2.07;1.10;;;;;;;;;;4940663;28;20217;-85
2023/03/16 09:40:42;;;;;;;1.60;1.10;;;;;;;;;;4965985;28;20287;-86
2023/03/16 09:43:28;;;;;;;1.80;1.07;;;;;;;;;;4918636;28;20309;-85
2023/03/16 09:46:04;;;;;;;1.43;1.00;;;;;;;;;;4973869;28;20705;-85
2023/03/16 09:48:34;;;;;;;2.87;0.93;;;;;;;;;;4962676;28;20243;-86
2023/03/16 09:51:00;;;;;;;2.70;1.10;;;;;;;;;;4937116;28;20217;-86
2023/03/16 09:53:28;;;;;;;2.13;1.10;;;;;;;;;;4940312;28;20226;-86
2023/03/16 09:56:04;;;;;;;2.63;1.20;;;;;;;;;;4953255;28;20797;-85
2023/03/16 09:58:32;;;;;;;4.30;1.23;;;;;;;;;;4960427;28;20679;-85
2023/03/16 10:04:39;;;;;;;3.93;1.20;;;;;;;;;;4974071;28;20714;-84
2023/03/16 10:07:14;;;;;;;3.40;1.00;;;;;;;;;;4973052;28;20312;-84
2023/03/16 10:09:53;;;;;;;2.00;0.97;;;;;;;;;;4978717;28;20232;-87
2023/03/16 10:12:19;;;;;;;2.27;1.23;;;;;;;;;;4962051;28;20209;-86
2023/03/16 10:15:13;;;;;;;2.57;1.10;;;;;;;;;;4962651;28;20297;-87
2023/03/16 10:18:09;;;;;;;1.93;0.90;;;;;;;;;;4967485;28;20233;-85
2023/03/16 10:20:35;;;;;;;1.47;1.00;;;;;;;;;;4961101;28;20230;-86
2023/03/16 10:23:12;;;;;;;3.37;1.00;;;;;;;;;;4949472;28;20233;-86
2023/03/16 10:25:48;;;;;;;2.47;0.97;;;;;;;;;;4931108;28;20217;-84
2023/03/16 10:28:25;;;;;;;2.57;1.07;;;;;;;;;;4979445;28;20217;-89
2023/03/16 10:30:52;;;;;;;1.47;0.73;;;;;;;;;;4948326;28;20225;-86
2023/03/16 10:33:25;;;;;;;1.17;0.73;;;;;;;;;;4955352;28;20276;-86
2023/03/16 10:35:52;;;;;;;1.73;0.80;;;;;;;;;;4962708;28;20228;-88
2023/03/16 10:38:31;;;;;;;1.33;0.83;;;;;;;;;;4959728;28;20241;-85
2023/03/16 10:40:58;;;;;;;1.87;1.00;;;;;;;;;;4959791;28;20270;-84
2023/03/16 10:43:24;;;;;;;1.60;0.80;;;;;;;;;;4957030;28;20228;-87
2023/03/16 10:45:49;;;;;;;1.70;0.80;;;;;;;;;;4967357;28;20217;-86
2023/03/16 10:48:29;;;;;;;1.43;0.83;;;;;;;;;;4962619;28;20224;-87
2023/03/16 10:50:56;;;;;;;1.77;0.90;;;;;;;;;;4960703;28;20312;-85
2023/03/16 10:53:25;;;;;;;2.00;0.77;;;;;;;;;;4961609;28;20222;-88
2023/03/16 10:56:01;;;;;;;1.60;0.93;;;;;;;;;;4963383;28;20215;-86
2023/03/16 10:58:32;;;;;;;2.30;0.80;;;;;;;;;;4972857;28;20250;-86
2023/03/16 11:01:02;;;;;;;0.67;0.53;;;;;;;;;;4969685;28;20657;-86
2023/03/16 11:03:31;;;;;;;2.20;0.80;;;;;;;;;;4971163;28;22122;-85
2023/03/16 11:06:03;;;;;;;2.00;0.87;;;;;;;;;;4949526;28;20713;-84
2023/03/16 11:08:38;;;;;;;1.20;0.90;;;;;;;;;;4953469;28;20225;-85
2023/03/16 11:11:08;;;;;;;2.70;1.07;;;;;;;;;;4973944;28;20220;-83
2023/03/16 11:13:36;;;;;;;1.43;0.90;;;;;;;;;;4980443;28;20218;-85
2023/03/16 11:16:15;;;;;;;2.23;0.80;;;;;;;;;;4981685;28;20204;-84
2023/03/16 11:18:43;;;;;;;2.67;1.00;;;;;;;;;;4984069;28;20237;-83
2023/03/16 11:21:16;;;;;;;1.60;0.77;;;;;;;;;;4992078;28;20555;-85
2023/03/16 11:23:50;;;;;;;1.17;0.70;;;;;;;;;;4982235;28;20237;-84
2023/03/16 11:26:20;;;;;;;1.87;0.70;;;;;;;;;;4997343;28;20210;-85
2023/03/16 11:29:00;;;;;;;1.90;1.00;;;;;;;;;;4974902;28;20208;-87
2023/03/16 11:31:49;;;;;;;3.33;1.00;;;;;;;;;;4976002;28;20225;-86
2023/03/16 11:34:16;;;;;;;1.40;0.80;;;;;;;;;;4982109;28;20248;-86
2023/03/16 11:37:00;;;;;;;3.03;0.90;;;;;;;;;;4959407;28;20249;-87
2023/03/16 11:39:36;;;;;;;0.93;0.70;;;;;;;;;;4976326;28;20226;-88
2023/03/16 11:42:11;;;;;;;3.07;0.80;;;;;;;;;;4982349;28;20236;-87
2023/03/16 11:45:00;;;;;;;1.13;0.70;;;;;;;;;;4978128;28;20678;-86
2023/03/16 11:47:44;;;;;;;0.90;0.60;;;;;;;;;;4982060;28;20275;-86
2023/03/16 11:50:17;;;;;;;1.07;0.80;;;;;;;;;;4975669;28;20222;-86
2023/03/16 11:53:11;;;;;;;2.27;0.80;;;;;;;;;;4981845;28;20232;-86
2023/03/16 11:55:39;;;;;;;1.07;0.67;;;;;;;;;;4957734;28;20384;-86
2023/03/16 11:58:27;;;;;;;1.50;0.80;;;;;;;;;;4966730;28;20225;-88
2023/03/16 12:01:12;;;;;;;0.93;0.60;;;;;;;;;;4963101;28;20253;-87
2023/03/16 12:03:52;;;;;;;1.23;0.80;;;;;;;;;;4986958;28;20228;-86
2023/03/16 12:06:21;;;;;;;1.43;0.80;;;;;;;;;;4957183;28;20221;-88
2023/03/16 12:09:03;;;;;;;3.00;0.80;;;;;;;;;;4993014;28;20225;-86
2023/03/16 12:11:32;;;;;;;1.00;0.80;;;;;;;;;;4963450;28;20225;-85
2023/03/16 12:14:07;;;;;;;1.10;0.70;;;;;;;;;;4947922;28;20278;-88
2023/03/16 12:17:05;;;;;;;0.93;0.70;;;;;;;;;;4968456;28;20256;-86
2023/03/16 12:19:49;;;;;;;1.73;0.80;;;;;;;;;;4953536;28;20296;-87
2023/03/16 12:22:24;;;;;;;0.67;0.60;;;;;;;;;;4988418;28;20241;-86
2023/03/16 12:24:53;;;;;;;1.20;0.70;;;;;;;;;;4957798;28;20231;-88
2023/03/16 12:27:32;;;;;;;2.20;0.93;;;;;;;;;;4962768;28;20213;-88
2023/03/16 12:30:26;;;;;;;1.80;0.60;;;;;;;;;;4957893;28;20248;-87
2023/03/16 12:32:54;;;;;;;1.63;0.70;;;;;;;;;;4995060;28;20225;-88
2023/03/16 12:35:26;;;;;;;3.40;1.10;;;;;;;;;;4967826;28;20281;-88
2023/03/16 12:37:57;;;;;;;1.10;0.70;;;;;;;;;;5004011;28;20252;-88
2023/03/16 12:40:40;;;;;;;1.47;0.80;;;;;;;;;;5007148;28;20284;-90
2023/03/16 12:43:42;;;;;;;1.03;0.73;;;;;;;;;;4959963;28;20236;-87
2023/03/16 12:46:24;;;;;;;1.57;0.70;;;;;;;;;;4960751;28;20234;-86
2023/03/16 12:48:57;;;;;;;1.90;0.70;;;;;;;;;;4958155;28;20217;-87
2023/03/16 12:51:34;;;;;;;2.17;0.90;;;;;;;;;;4973643;28;20303;-88
2023/03/16 12:54:00;;;;;;;1.63;0.73;;;;;;;;;;4970691;28;20219;-88
2023/03/16 12:56:36;;;;;;;2.27;0.93;;;;;;;;;;4958676;28;20226;-87
2023/03/16 12:59:04;;;;;;;1.23;0.80;;;;;;;;;;4951927;28;20260;-89
2023/03/16 13:01:36;;;;;;;1.73;0.90;;;;;;;;;;4939631;28;20253;-87
2023/03/16 13:04:20;;;;;;;1.33;0.87;;;;;;;;;;4964002;28;20253;-89
2023/03/16 13:07:01;;;;;;;1.43;0.73;;;;;;;;;;4968430;28;20400;-87
2023/03/16 13:09:30;;;;;;;0.70;0.70;;;;;;;;;;4951828;28;20282;-89
2023/03/16 13:11:56;;;;;;;2.77;0.70;;;;;;;;;;4949222;28;20233;-88
2023/03/16 13:14:37;;;;;;;1.37;0.77;;;;;;;;;;4961284;28;20231;-86
2023/03/16 13:17:26;;;;;;;1.07;0.70;;;;;;;;;;4967846;28;20218;-87
2023/03/16 13:20:12;;;;;;;1.07;0.70;;;;;;;;;;4972564;28;20292;-86
2023/03/16 13:22:50;;;;;;;2.50;0.97;;;;;;;;;;4976488;28;20295;-88
2023/03/16 13:25:29;;;;;;;1.13;0.70;;;;;;;;;;4959330;28;20229;-88
2023/03/16 13:27:56;;;;;;;1.00;0.70;;;;;;;;;;4977553;28;20308;-89
2023/03/16 13:30:29;;;;;;;4.43;0.90;;;;;;;;;;4962082;28;20206;-86
2023/03/16 13:32:59;;;;;;;0.70;0.60;;;;;;;;;;4964050;28;20690;-88
2023/03/16 13:35:27;;;;;;;1.27;0.73;;;;;;;;;;4969276;28;20213;-88
2023/03/16 13:38:04;;;;;;;1.03;0.67;;;;;;;;;;4964169;28;20634;-87
2023/03/16 13:40:33;;;;;;;0.87;0.53;;;;;;;;;;4968971;28;20249;-89
2023/03/16 13:42:59;;;;;;;1.50;0.70;;;;;;;;;;4933570;28;20237;-88
2023/03/16 13:45:32;;;;;;;1.47;0.73;;;;;;;;;;4965736;28;20219;-87
2023/03/16 13:47:58;;;;;;;1.30;0.70;;;;;;;;;;4960118;28;20309;-85
2023/03/16 13:50:31;;;;;;;1.17;0.70;;;;;;;;;;4962583;28;20229;-89
2023/03/16 13:53:01;;;;;;;1.67;0.60;;;;;;;;;;4981763;28;20284;-87
2023/03/16 13:55:32;;;;;;;0.90;0.50;;;;;;;;;;4972894;28;20296;-88
2023/03/16 13:57:58;;;;;;;1.13;0.60;;;;;;;;;;4941071;28;20304;-88
2023/03/16 14:00:25;;;;;;;0.77;0.50;;;;;;;;;;4960061;28;20242;-87
2023/03/16 14:02:58;;;;;;;1.43;0.70;;;;;;;;;;4974385;28;20225;-91
2023/03/16 14:05:24;;;;;;;1.23;0.90;;;;;;;;;;4932229;28;20296;-88
2023/03/16 14:07:51;;;;;;;0.97;0.60;;;;;;;;;;4966410;28;20542;-88
2023/03/16 14:10:17;;;;;;;1.50;0.73;;;;;;;;;;4955579;28;20304;-87
2023/03/16 14:13:05;;;;;;;0.77;0.60;;;;;;;;;;4960838;28;20665;-87
2023/03/16 14:15:33;;;;;;;0.77;0.67;;;;;;;;;;4944876;28;20229;-88
2023/03/16 14:18:15;;;;;;;1.40;0.60;;;;;;;;;;4967480;28;20205;-88
2023/03/16 14:20:41;;;;;;;0.97;0.60;;;;;;;;;;4961491;28;20227;-88
2023/03/16 14:23:19;;;;;;;0.60;0.50;;;;;;;;;;4946299;28;20640;-88
2023/03/16 14:25:52;;;;;;;1.20;0.63;;;;;;;;;;4952948;28;20210;-86
2023/03/16 14:28:21;;;;;;;1.50;0.60;;;;;;;;;;4965645;28;20279;-87
2023/03/16 14:30:54;;;;;;;2.80;0.80;;;;;;;;;;4947421;28;20275;-86
2023/03/16 14:33:26;;;;;;;1.03;0.60;;;;;;;;;;4963861;28;20596;-86
2023/03/16 14:35:56;;;;;;;2.10;0.70;;;;;;;;;;4973041;28;20221;-89
2023/03/16 14:38:39;;;;;;;1.60;0.73;;;;;;;;;;4960245;28;20770;-88
2023/03/16 14:41:10;;;;;;;0.93;0.50;;;;;;;;;;4971902;28;20269;-87
2023/03/16 14:43:45;;;;;;;0.93;0.70;;;;;;;;;;4971578;28;20236;-89
2023/03/16 14:46:12;;;;;;;0.97;0.73;;;;;;;;;;4961540;28;20335;-87
2023/03/16 14:48:40;;;;;;;1.87;0.80;;;;;;;;;;4968566;28;20267;-88
2023/03/16 14:51:10;;;;;;;1.07;0.70;;;;;;;;;;4922404;28;20495;-88
2023/03/16 14:53:38;;;;;;;1.10;0.67;;;;;;;;;;4960166;28;20316;-88
2023/03/16 14:56:09;;;;;;;3.03;0.83;;;;;;;;;;4930953;28;20217;-86
2023/03/16 14:58:35;;;;;;;1.20;0.80;;;;;;;;;;4964213;28;20304;-87
2023/03/16 15:01:03;;;;;;;1.40;0.80;;;;;;;;;;4962546;28;20700;-87
2023/03/16 15:03:31;;;;;;;1.77;0.70;;;;;;;;;;4965886;28;20248;-86
2023/03/16 15:05:58;;;;;;;0.73;0.60;;;;;;;;;;4969438;28;20209;-86
2023/03/16 15:08:26;;;;;;;1.03;0.70;;;;;;;;;;4965660;28;20594;-85
2023/03/16 15:10:52;;;;;;;2.47;0.87;;;;;;;;;;4980851;28;20214;-87